Sunday, December 17, 2017, 2:44 PM EST
Back to Local

KPVD, Providence Green State Airport

Location: Warwick, RI, United States Lat: 41.733
Local Time: 2:44 PM EST (19:44 GMT) Lon: -71.433
Time Zone: US/Eastern Elev: 55 ft

Show me the last for .
Show Decoded

2017-12-17 13:51 METAR KPVD 171851Z COR 29006KT 10SM BKN180 M01/M14 A3023 RMK SLP236 T10111139 =
2017-12-17 12:51 METAR KPVD 171751Z COR 31008KT 10SM BKN200 M01/M13 A3024 RMK SLP240 4/001
                 T10061133 11006 21117 58014 =
2017-12-17 11:51 METAR KPVD 171651Z 33007KT 10SM CLR M01/M13 A3026 RMK AO2 SLP247 T10061133 =
2017-12-17 10:51 METAR KPVD 171551Z 34007KT 10SM FEW100 M01/M13 A3028 RMK AO2 SLP252 T10111128 =
2017-12-17 09:51 METAR KPVD 171451Z 32007KT 10SM CLR M03/M13 A3028 RMK AO2 SLP255 T10281133 50003
                 =
2017-12-17 08:51 METAR KPVD 171351Z 00000KT 10SM CLR M06/M11 A3029 RMK AO2 SLP255 T10561111 =
2017-12-17 07:51 METAR KPVD 171251Z 03003KT 10SM CLR M09/M11 A3028 RMK AO2 SLP252 T10891111 =
2017-12-17 06:51 METAR KPVD 171151Z COR 00000KT 10SM FEW250 M09/M12 A3027 RMK SLP252 4/001
                 T10941117 11050 21100 5014 =
2017-12-17 05:51 METAR KPVD 171051Z 30004KT 10SM CLR M08/M11 A3027 RMK AO2 SLP251 T10781111 =
2017-12-17 04:51 METAR KPVD 170951Z AUTO 27003KT 10SM CLR M07/M11 A3025 RMK AO2 SLP244 T10721111
                 =
2017-12-17 03:51 METAR KPVD 170851Z AUTO 28006KT 10SM CLR M07/M11 A3023 RMK AO2 SLP237 T10671106
                 51012 =
2017-12-17 02:51 METAR KPVD 170751Z AUTO 27005KT 10SM CLR M06/M11 A3023 RMK AO2 SLP236 T10611106
                 =
2017-12-17 01:51 METAR KPVD 170651Z AUTO 29007KT 10SM CLR M06/M11 A3022 RMK AO2 SLP232 T10561106
                 =
2017-12-17 00:51 METAR KPVD 170551Z AUTO 27005KT 10SM CLR M06/M11 A3020 RMK AO2 SLP225 T10561106
                 11006 21056 51013 =
2017-12-16 23:51 METAR KPVD 170451Z COR 32003KT 10SM CLR M04/M11 A3019 RMK AO2 SLPNO LAST =
2017-12-16 22:51 METAR KPVD 170351Z 29007KT 10SM CLR M03/M09 A3018 RMK AO2 SLP218 T10331094 =
2017-12-16 21:51 METAR KPVD 170251Z COR 30007KT 10SM FEW040 M02/M09 A3016 =
2017-12-16 20:51 METAR KPVD 170151Z COR 31008KT 10SM FEW035 FEW070 M02/M08 A3013 =
2017-12-16 19:51 METAR KPVD 170051Z COR 31007KT 10SM FEW045 FEW070 M02/M07 A3011 =
2017-12-16 18:51 METAR KPVD 162351Z COR 31007KT 10SM FEW030 SCT045 BKN070 BKN130 BKN300 M01/M06
                 A3008 RMK AO2 SNE23 SLPNO 4/001 P0000 60000 =
2017-12-16 17:51 METAR KPVD 162251Z COR 33008KT 10SM -SN FEW030 BKN045 OVC090 01/M06 A3004 RMK
                 AO2 SNB46 SLPNO P0000 =
2017-12-16 16:51 METAR KPVD 162151Z COR 30005KT 10SM FEW035 BKN060 BKN090 OVC130 01/M06 A2999 =
2017-12-16 15:51 METAR KPVD 162051Z COR 27005KT 10SM FEW037 FEW065 BKN090 BKN130 BKN300 01/M07
                 A2996 =
2017-12-16 14:51 METAR KPVD 161951Z COR 26010KT 10SM FEW035 BKN095 01/M07 A2995 =

Support USWX by starting your Amazon purchase here.